createdAt,value
2023-02-15T00:01:46.810Z,34.67
2023-02-15T00:04:17.632Z,35.17
2023-02-15T00:06:44.453Z,32.80
2023-02-15T00:09:11.870Z,32.05
2023-02-15T00:11:41.781Z,33.42
2023-02-15T00:14:09.637Z,32.70
2023-02-15T00:16:36.758Z,33.65
2023-02-15T00:19:03.779Z,33.30
2023-02-15T00:21:31.194Z,32.75
2023-02-15T00:23:58.360Z,31.70
2023-02-15T00:26:24.953Z,31.92
2023-02-15T00:28:51.994Z,30.40
2023-02-15T00:31:19.678Z,32.30
2023-02-15T00:33:46.501Z,32.08
2023-02-15T00:36:13.416Z,32.70
2023-02-15T00:38:40.150Z,31.30
2023-02-15T00:41:07.618Z,30.13
2023-02-15T00:43:34.522Z,37.55
2023-02-15T00:46:02.016Z,36.83
2023-02-15T00:48:28.895Z,32.17
2023-02-15T00:50:57.065Z,32.58
2023-02-15T00:53:24.048Z,32.28
2023-02-15T00:55:50.536Z,33.60
2023-02-15T00:58:17.440Z,32.97
2023-02-15T01:00:45.241Z,33.97
2023-02-15T01:03:12.564Z,34.30
2023-02-15T01:05:39.187Z,33.40
2023-02-15T01:08:05.764Z,32.47
2023-02-15T01:10:32.574Z,31.67
2023-02-15T01:12:59.126Z,31.52
2023-02-15T01:15:27.112Z,32.90
2023-02-15T01:17:54.504Z,32.60
2023-02-15T01:20:22.517Z,32.30
2023-02-15T01:22:50.940Z,33.90
2023-02-15T01:25:18.356Z,31.35
2023-02-15T01:27:45.315Z,30.83
2023-02-15T01:30:13.520Z,32.22
2023-02-15T01:32:40.879Z,32.15
2023-02-15T01:35:08.621Z,30.40
2023-02-15T01:37:35.675Z,31.95
2023-02-15T01:40:03.039Z,34.47
2023-02-15T01:42:31.589Z,33.33
2023-02-15T01:44:59.398Z,33.33
2023-02-15T01:47:40.104Z,31.15
2023-02-15T01:50:13.411Z,32.08
2023-02-15T01:52:44.200Z,31.77
2023-02-15T01:55:11.607Z,32.50
2023-02-15T01:57:38.167Z,30.05
2023-02-15T02:00:05.810Z,31.50
2023-02-15T02:02:39.661Z,31.00
2023-02-15T02:05:07.804Z,32.50
2023-02-15T02:07:36.390Z,32.67
2023-02-15T02:10:04.383Z,31.38
2023-02-15T02:12:33.647Z,30.77
2023-02-15T02:15:01.776Z,30.40
2023-02-15T02:17:47.680Z,31.33
2023-02-15T02:20:25.400Z,30.77
2023-02-15T02:23:12.019Z,30.50
2023-02-15T02:25:47.653Z,29.27
2023-02-15T02:28:46.848Z,30.42
2023-02-15T02:31:16.594Z,28.65
2023-02-15T02:33:49.410Z,30.60
2023-02-15T02:36:19.615Z,30.90
2023-02-15T02:39:05.436Z,29.27
2023-02-15T02:41:41.614Z,29.38
2023-02-15T02:44:11.216Z,29.35
2023-02-15T02:46:45.250Z,30.70
2023-02-15T02:49:12.743Z,30.97
2023-02-15T02:51:39.344Z,31.42
2023-02-15T02:54:07.187Z,29.17
2023-02-15T02:56:33.851Z,29.83
2023-02-15T02:59:13.395Z,30.45
2023-02-15T03:01:43.889Z,29.92
2023-02-15T03:04:18.363Z,30.02
2023-02-15T03:06:48.472Z,29.90
2023-02-15T03:09:18.534Z,30.20
2023-02-15T03:11:45.914Z,29.55
2023-02-15T03:14:15.320Z,27.52
2023-02-15T03:16:43.695Z,26.85
2023-02-15T03:19:16.375Z,27.15
2023-02-15T03:22:04.577Z,27.20
2023-02-15T03:24:35.784Z,26.02
2023-02-15T03:27:04.895Z,25.77
2023-02-15T03:29:32.561Z,27.17
2023-02-15T03:32:01.889Z,27.27
2023-02-15T03:34:28.614Z,27.25
2023-02-15T03:36:55.430Z,27.33
2023-02-15T03:39:27.204Z,27.00
2023-02-15T03:42:07.995Z,27.42
2023-02-15T03:44:40.785Z,25.52
2023-02-15T03:47:12.989Z,26.00
2023-02-15T03:49:43.860Z,26.10
2023-02-15T03:52:11.457Z,26.75
2023-02-15T03:54:44.523Z,25.70
2023-02-15T03:57:34.327Z,26.13
2023-02-15T04:00:19.922Z,25.75
2023-02-15T04:02:58.837Z,26.27
2023-02-15T04:05:25.497Z,26.67
2023-02-15T04:07:51.973Z,26.45
2023-02-15T04:10:37.259Z,26.50
2023-02-15T04:13:03.955Z,29.10
2023-02-15T04:15:48.985Z,31.92
2023-02-15T04:18:15.805Z,30.38
2023-02-15T04:21:04.861Z,31.55
2023-02-15T04:23:49.822Z,31.25
2023-02-15T04:26:16.452Z,31.00
2023-02-15T04:28:42.973Z,32.25
2023-02-15T04:31:09.632Z,31.27
2023-02-15T04:33:36.848Z,31.73
2023-02-15T04:36:04.554Z,33.28
2023-02-15T04:38:31.119Z,34.00
2023-02-15T04:40:58.117Z,33.88
2023-02-15T04:43:24.597Z,34.42
2023-02-15T04:45:51.843Z,33.35
2023-02-15T04:48:18.956Z,35.80
2023-02-15T04:50:45.742Z,36.58
2023-02-15T04:53:12.371Z,35.28
2023-02-15T04:55:39.060Z,37.58
2023-02-15T04:58:05.522Z,37.17
2023-02-15T05:00:32.053Z,36.55
2023-02-15T05:02:58.704Z,37.95
2023-02-15T05:05:25.295Z,35.47
2023-02-15T05:07:51.833Z,35.15
2023-02-15T05:10:18.548Z,33.72
2023-02-15T05:12:44.998Z,32.72
2023-02-15T05:15:12.021Z,32.67
2023-02-15T05:17:38.897Z,32.00
2023-02-15T05:20:05.864Z,30.98
2023-02-15T05:22:32.529Z,32.45
2023-02-15T05:25:17.503Z,31.02
2023-02-15T05:28:04.953Z,31.95
2023-02-15T05:30:32.108Z,30.75
2023-02-15T05:32:58.687Z,31.45
2023-02-15T05:35:25.369Z,30.95
2023-02-15T05:37:52.040Z,32.60
2023-02-15T05:40:18.612Z,35.58
2023-02-15T05:42:45.114Z,32.13
2023-02-15T05:45:11.970Z,32.50
2023-02-15T05:47:38.762Z,33.92
2023-02-15T05:50:05.818Z,34.53
2023-02-15T05:52:32.592Z,32.50
2023-02-15T05:55:01.215Z,34.38
2023-02-15T05:57:27.903Z,33.67
2023-02-15T05:59:54.528Z,33.70
2023-02-15T06:02:21.159Z,34.10
2023-02-15T06:04:47.850Z,33.45
2023-02-15T06:07:14.616Z,34.05
2023-02-15T06:09:41.239Z,32.00
2023-02-15T06:12:07.768Z,33.63
2023-02-15T06:14:34.486Z,32.58
2023-02-15T06:17:01.041Z,33.38
2023-02-15T06:19:27.698Z,33.13
2023-02-15T06:21:54.403Z,32.78
2023-02-15T06:24:21.182Z,33.17
2023-02-15T06:26:48.696Z,32.30
2023-02-15T06:29:15.635Z,32.95
2023-02-15T06:31:42.370Z,32.03
2023-02-15T06:34:09.375Z,32.58
2023-02-15T06:36:36.333Z,32.45
2023-02-15T06:39:04.153Z,33.97
2023-02-15T06:41:30.973Z,32.72
2023-02-15T06:43:58.274Z,33.15
2023-02-15T06:46:24.908Z,32.05
2023-02-15T06:48:51.635Z,33.50
2023-02-15T06:51:18.260Z,32.15
2023-02-15T06:53:44.972Z,32.17
2023-02-15T06:56:12.162Z,33.00
2023-02-15T06:58:39.747Z,33.10
2023-02-15T07:01:06.867Z,32.70
2023-02-15T07:03:33.616Z,32.05
2023-02-15T07:06:01.540Z,31.00
2023-02-15T07:08:28.830Z,32.83
2023-02-15T07:10:55.834Z,34.63
2023-02-15T07:13:22.428Z,31.73
2023-02-15T07:15:49.231Z,32.22
2023-02-15T07:18:16.050Z,33.00
2023-02-15T07:20:42.798Z,33.72
2023-02-15T07:23:09.394Z,30.90
2023-02-15T07:25:35.912Z,31.75
2023-02-15T07:28:03.482Z,33.83
2023-02-15T07:30:30.312Z,31.92
2023-02-15T07:33:16.363Z,31.63
2023-02-15T07:35:49.816Z,33.15
2023-02-15T07:38:16.474Z,31.02
2023-02-15T07:40:43.431Z,32.33
2023-02-15T07:43:10.255Z,32.63
2023-02-15T07:45:37.324Z,31.83
2023-02-15T07:48:04.523Z,32.78
2023-02-15T07:50:31.855Z,31.90
2023-02-15T07:52:58.829Z,31.55
2023-02-15T07:55:25.775Z,32.53
2023-02-15T07:57:52.736Z,31.42
2023-02-15T08:00:22.464Z,32.75
2023-02-15T08:02:50.063Z,33.35
2023-02-15T08:05:17.993Z,31.38
2023-02-15T08:07:44.535Z,32.20
2023-02-15T08:10:31.070Z,30.88
2023-02-15T08:12:57.945Z,31.15
2023-02-15T08:15:24.460Z,30.70
2023-02-15T08:17:51.037Z,32.33
2023-02-15T08:20:17.584Z,31.13
2023-02-15T08:22:44.473Z,32.03
2023-02-15T08:25:10.914Z,31.65
2023-02-15T08:27:37.473Z,31.75
2023-02-15T08:30:05.552Z,32.42
2023-02-15T08:32:32.133Z,31.60
2023-02-15T08:34:58.689Z,32.03
2023-02-15T08:37:26.715Z,33.13
2023-02-15T08:39:53.208Z,31.60
2023-02-15T08:42:21.801Z,32.63
2023-02-15T08:44:50.295Z,31.67
2023-02-15T08:47:17.052Z,32.80
2023-02-15T08:49:43.610Z,32.83
2023-02-15T08:52:10.268Z,31.80
2023-02-15T08:54:36.720Z,31.88
2023-02-15T08:57:03.365Z,30.23
2023-02-15T08:59:29.863Z,31.15
2023-02-15T09:01:56.752Z,32.15
2023-02-15T09:04:23.723Z,31.58
2023-02-15T09:06:51.969Z,29.23
2023-02-15T09:09:19.368Z,30.83
2023-02-15T09:11:46.948Z,30.90
2023-02-15T09:14:14.650Z,30.67
2023-02-15T09:16:42.166Z,29.98
2023-02-15T09:19:08.779Z,30.35
2023-02-15T09:21:36.819Z,31.45
2023-02-15T09:24:05.669Z,30.88
2023-02-15T09:26:33.255Z,30.38
2023-02-15T09:29:01.935Z,30.13
2023-02-15T09:31:30.036Z,30.77
2023-02-15T09:33:56.744Z,30.60
2023-02-15T09:36:23.283Z,30.88
2023-02-15T09:38:56.368Z,30.17
2023-02-15T09:41:25.810Z,30.85
2023-02-15T09:43:55.188Z,31.60
2023-02-15T09:46:28.021Z,29.90
2023-02-15T09:49:00.130Z,31.05
2023-02-15T09:51:45.371Z,31.33
2023-02-15T09:54:24.216Z,30.50
2023-02-15T09:57:00.524Z,30.27
2023-02-15T09:59:30.001Z,30.52
2023-02-15T10:02:23.066Z,29.92
2023-02-15T10:04:52.881Z,29.90
2023-02-15T10:07:42.540Z,31.13
2023-02-15T10:10:09.342Z,30.85
2023-02-15T10:12:36.967Z,31.67
2023-02-15T10:15:21.982Z,30.20
2023-02-15T10:18:07.242Z,28.58
2023-02-15T10:20:45.931Z,28.95
2023-02-15T10:23:24.485Z,29.45
2023-02-15T10:26:12.506Z,30.50
2023-02-15T10:28:45.086Z,29.33
2023-02-15T10:31:37.651Z,30.00
2023-02-15T10:34:04.224Z,29.52
2023-02-15T10:36:46.412Z,30.42
2023-02-15T10:39:25.382Z,29.63
2023-02-15T10:41:58.842Z,28.45
2023-02-15T10:44:34.430Z,30.80
2023-02-15T10:47:01.475Z,28.10
2023-02-15T10:49:27.921Z,30.17
2023-02-15T10:52:07.090Z,28.63
2023-02-15T10:54:37.331Z,30.73
2023-02-15T10:57:11.696Z,29.00
2023-02-15T10:59:57.290Z,30.17
2023-02-15T11:02:37.846Z,29.33
2023-02-15T11:05:24.744Z,28.52
2023-02-15T11:07:52.204Z,28.98
2023-02-15T11:10:18.735Z,27.88
2023-02-15T11:12:45.839Z,29.42
2023-02-15T11:15:17.698Z,29.58
2023-02-15T11:17:46.845Z,30.15
2023-02-15T11:20:13.536Z,28.63
2023-02-15T11:22:40.859Z,29.17
2023-02-15T11:25:17.029Z,30.20
2023-02-15T11:27:47.524Z,30.65
2023-02-15T11:30:15.342Z,29.20
2023-02-15T11:32:44.687Z,31.80
2023-02-15T11:35:19.592Z,30.60
2023-02-15T11:37:58.569Z,29.13
2023-02-15T11:40:29.590Z,29.85
2023-02-15T11:42:57.215Z,28.17
2023-02-15T11:45:26.502Z,29.15
2023-02-15T11:47:53.826Z,27.92
2023-02-15T11:50:24.591Z,27.33
2023-02-15T11:52:52.983Z,27.92
2023-02-15T11:55:21.842Z,28.67
2023-02-15T11:57:53.270Z,28.30
2023-02-15T12:00:37.130Z,28.33
2023-02-15T12:03:23.598Z,28.88
2023-02-15T12:05:52.902Z,29.00
2023-02-15T12:08:22.849Z,28.85
2023-02-15T12:11:01.772Z,27.17
2023-02-15T12:13:28.698Z,27.58
2023-02-15T12:15:56.836Z,27.92
2023-02-15T12:18:36.197Z,27.48
2023-02-15T12:21:05.761Z,27.80
2023-02-15T12:23:33.088Z,28.77
2023-02-15T12:26:00.301Z,27.75
2023-02-15T12:28:31.337Z,28.35
2023-02-15T12:30:58.676Z,26.75
2023-02-15T12:33:36.612Z,27.52
2023-02-15T12:36:10.464Z,28.25
2023-02-15T12:38:38.358Z,26.75
2023-02-15T12:41:06.294Z,27.55
2023-02-15T12:43:34.180Z,25.83
2023-02-15T12:46:19.655Z,27.38
2023-02-15T12:48:46.355Z,27.25
2023-02-15T12:51:16.225Z,26.10
2023-02-15T12:53:45.141Z,27.80
2023-02-15T12:56:12.241Z,27.95
2023-02-15T12:58:39.806Z,27.27
2023-02-15T13:01:15.057Z,26.73
2023-02-15T13:04:01.695Z,27.48
2023-02-15T13:06:29.730Z,27.02
2023-02-15T13:08:58.477Z,27.42
2023-02-15T13:11:31.340Z,27.55
2023-02-15T13:14:08.722Z,27.77
2023-02-15T13:16:38.454Z,28.40
2023-02-15T13:19:17.388Z,28.75
2023-02-15T13:21:51.236Z,29.20
2023-02-15T13:24:20.591Z,28.10
2023-02-15T13:26:48.258Z,27.67
2023-02-15T13:29:36.052Z,27.67
2023-02-15T13:32:08.729Z,28.35
2023-02-15T13:34:37.182Z,26.40
2023-02-15T13:37:06.664Z,26.50
2023-02-15T13:39:33.349Z,27.17
2023-02-15T13:42:22.760Z,29.25
2023-02-15T13:45:07.928Z,27.27
2023-02-15T13:47:40.752Z,28.73
2023-02-15T13:50:25.782Z,33.65
2023-02-15T13:52:57.776Z,27.58
2023-02-15T13:55:24.386Z,27.95
2023-02-15T13:58:00.479Z,26.13
2023-02-15T14:00:31.481Z,26.98
2023-02-15T14:03:00.995Z,27.48
2023-02-15T14:05:27.874Z,27.15
2023-02-15T14:08:14.563Z,27.15
2023-02-15T14:10:44.934Z,27.83
2023-02-15T14:13:26.794Z,28.95
2023-02-15T14:16:12.133Z,27.73
2023-02-15T14:18:57.462Z,27.02
2023-02-15T14:23:56.687Z,26.55
2023-02-15T14:26:46.456Z,25.80
2023-02-15T14:29:16.239Z,27.05
2023-02-15T14:31:44.872Z,26.35
2023-02-15T14:34:23.346Z,27.42
2023-02-15T14:36:51.084Z,26.52
2023-02-15T14:39:39.148Z,26.67
2023-02-15T14:42:10.794Z,26.13
2023-02-15T14:44:41.233Z,27.63
2023-02-15T14:47:19.450Z,28.00
2023-02-15T14:49:46.140Z,26.25
2023-02-15T14:52:13.325Z,26.25
2023-02-15T14:54:40.055Z,26.30
2023-02-15T14:57:07.440Z,26.27
2023-02-15T14:59:40.162Z,26.60
2023-02-15T15:02:07.038Z,25.42
2023-02-15T15:04:42.848Z,26.10
2023-02-15T15:07:26.013Z,24.85
2023-02-15T15:10:00.922Z,25.30
2023-02-15T15:14:55.123Z,24.90
2023-02-15T15:17:45.037Z,24.65
2023-02-15T15:20:15.383Z,24.05
2023-02-15T15:22:43.310Z,24.80
2023-02-15T15:25:21.628Z,23.20
2023-02-15T15:27:55.507Z,22.27
2023-02-15T15:30:23.452Z,22.08
2023-02-15T15:32:56.436Z,24.33
2023-02-15T15:35:29.328Z,22.88
2023-02-15T15:38:13.933Z,22.77
2023-02-15T15:40:58.970Z,23.63
2023-02-15T15:43:33.983Z,24.63
2023-02-15T15:46:13.035Z,24.50
2023-02-15T15:48:40.995Z,24.55
2023-02-15T15:51:07.476Z,25.00
2023-02-15T15:53:41.199Z,23.92
2023-02-15T15:56:11.391Z,25.13
2023-02-15T15:58:41.610Z,24.17
2023-02-15T16:01:10.212Z,25.27
2023-02-15T16:03:36.928Z,25.10
2023-02-15T16:06:03.967Z,24.98
2023-02-15T16:08:32.796Z,26.45
2023-02-15T16:11:00.893Z,26.25
2023-02-15T16:13:27.644Z,27.08
2023-02-15T16:15:56.184Z,26.75
2023-02-15T16:18:26.128Z,26.13
2023-02-15T16:20:58.036Z,28.10
2023-02-15T16:23:36.632Z,27.67
2023-02-15T16:26:12.280Z,29.88
2023-02-15T16:28:39.858Z,29.70
2023-02-15T16:31:08.334Z,28.73
2023-02-15T16:33:39.598Z,28.83
2023-02-15T16:36:08.872Z,28.20
2023-02-15T16:38:44.615Z,30.42
2023-02-15T16:41:12.335Z,28.35
2023-02-15T16:43:39.601Z,29.63
2023-02-15T16:46:08.202Z,29.73
2023-02-15T16:48:40.115Z,29.35
2023-02-15T16:51:06.874Z,29.13
2023-02-15T16:53:33.523Z,29.95
2023-02-15T16:56:01.937Z,29.10
2023-02-15T16:58:39.363Z,30.98
2023-02-15T17:01:07.865Z,30.90
2023-02-15T17:03:34.778Z,31.13
2023-02-15T17:06:02.849Z,29.70
2023-02-15T17:08:32.423Z,29.30
2023-02-15T17:11:13.524Z,29.90
2023-02-15T17:13:40.757Z,30.63
2023-02-15T17:16:36.918Z,30.13
2023-02-15T17:19:09.637Z,28.65
2023-02-15T17:21:42.522Z,28.50
2023-02-15T17:24:15.587Z,29.45
2023-02-15T17:26:42.173Z,29.48
2023-02-15T17:29:29.034Z,29.10
2023-02-15T17:31:58.523Z,28.67
2023-02-15T17:34:43.924Z,28.48
2023-02-15T17:39:37.290Z,26.83
2023-02-15T17:42:03.961Z,28.90
2023-02-15T17:44:30.514Z,27.70
2023-02-15T17:46:57.149Z,28.98
2023-02-15T17:49:25.254Z,29.35
2023-02-15T17:51:51.899Z,28.67
2023-02-15T17:54:37.240Z,28.17
2023-02-15T17:57:06.848Z,29.70
2023-02-15T17:59:33.285Z,30.10
2023-02-15T18:02:18.426Z,30.77
2023-02-15T18:07:48.464Z,28.83
2023-02-15T18:10:34.339Z,28.75
2023-02-15T18:13:01.025Z,29.23
2023-02-15T18:15:27.979Z,27.67
2023-02-15T18:17:54.881Z,28.50
2023-02-15T18:20:24.702Z,29.45
2023-02-15T18:22:51.853Z,29.80
2023-02-15T18:25:22.059Z,29.00
2023-02-15T18:27:48.795Z,28.42
2023-02-15T18:30:16.386Z,30.77
2023-02-15T18:32:43.474Z,29.00
2023-02-15T18:35:15.059Z,28.00
2023-02-15T18:37:41.795Z,29.13
2023-02-15T18:40:18.944Z,29.95
2023-02-15T18:42:49.470Z,28.92
2023-02-15T18:45:21.130Z,29.73
2023-02-15T18:47:48.762Z,29.05
2023-02-15T18:50:16.245Z,28.33
2023-02-15T18:52:44.896Z,28.38
2023-02-15T18:55:29.839Z,27.70
2023-02-15T18:57:57.194Z,28.70
2023-02-15T19:00:30.540Z,29.13
2023-02-15T19:02:57.624Z,29.92
2023-02-15T19:05:24.780Z,28.77
2023-02-15T19:07:51.509Z,28.85
2023-02-15T19:10:19.634Z,29.35
2023-02-15T19:12:46.925Z,27.92
2023-02-15T19:15:20.764Z,28.60
2023-02-15T19:17:47.485Z,29.48
2023-02-15T19:20:19.196Z,29.58
2023-02-15T19:22:47.030Z,27.83
2023-02-15T19:25:16.037Z,28.98
2023-02-15T19:27:42.710Z,29.48
2023-02-15T19:30:19.409Z,27.90
2023-02-15T19:32:46.335Z,30.35
2023-02-15T19:35:17.605Z,30.45
2023-02-15T19:37:45.806Z,30.02
2023-02-15T19:40:18.796Z,30.13
2023-02-15T19:42:45.538Z,29.75
2023-02-15T19:45:16.044Z,29.17
2023-02-15T19:47:43.506Z,28.60
2023-02-15T19:50:13.748Z,29.20
2023-02-15T19:52:41.261Z,28.48
2023-02-15T19:55:15.185Z,28.95
2023-02-15T19:57:41.900Z,28.73
2023-02-15T20:00:22.251Z,29.65
2023-02-15T20:02:49.454Z,30.73
2023-02-15T20:05:16.079Z,31.13
2023-02-15T20:07:45.062Z,30.02
2023-02-15T20:10:15.810Z,30.30
2023-02-15T20:12:42.727Z,30.30
2023-02-15T20:15:29.033Z,29.88
2023-02-15T20:17:56.665Z,30.38
2023-02-15T20:20:24.469Z,30.60
2023-02-15T20:22:51.741Z,32.28
2023-02-15T20:25:24.596Z,31.27
2023-02-15T20:27:51.212Z,31.20
2023-02-15T20:30:19.705Z,30.08
2023-02-15T20:32:46.344Z,29.70
2023-02-15T20:35:17.422Z,30.85
2023-02-15T20:37:45.772Z,31.38
2023-02-15T20:40:16.227Z,31.75
2023-02-15T20:42:42.823Z,31.73
2023-02-15T20:45:29.597Z,30.10
2023-02-15T20:47:56.523Z,30.55
2023-02-15T20:50:25.187Z,31.35
2023-02-15T20:52:52.497Z,31.02
2023-02-15T20:55:39.498Z,33.63
2023-02-15T20:58:13.432Z,31.90
2023-02-15T21:00:40.000Z,32.90
2023-02-15T21:03:10.831Z,32.08
2023-02-15T21:05:37.489Z,32.72
2023-02-15T21:08:12.010Z,32.97
2023-02-15T21:10:38.912Z,33.55
2023-02-15T21:13:05.854Z,34.80
2023-02-15T21:15:35.511Z,32.08
2023-02-15T21:18:03.646Z,32.92
2023-02-15T21:20:30.938Z,34.00
2023-02-15T21:23:01.014Z,32.17
2023-02-15T21:25:36.400Z,33.60
2023-02-15T21:28:03.682Z,32.88
2023-02-15T21:30:30.345Z,33.60
2023-02-15T21:32:57.235Z,32.80
2023-02-15T21:35:24.077Z,33.70
2023-02-15T21:37:51.633Z,32.70
2023-02-15T21:40:18.298Z,32.92
2023-02-15T21:43:04.048Z,34.33
2023-02-15T21:45:49.465Z,34.15
2023-02-15T21:51:01.830Z,34.00
2023-02-15T21:53:33.127Z,33.80
2023-02-15T21:56:01.785Z,33.92
2023-02-15T21:58:29.597Z,35.35
2023-02-15T22:00:57.782Z,35.67
2023-02-15T22:03:25.681Z,33.53
2023-02-15T22:05:52.630Z,34.53
2023-02-15T22:08:19.959Z,35.47
2023-02-15T22:10:48.090Z,36.15
2023-02-15T22:13:20.203Z,34.70
2023-02-15T22:15:47.490Z,35.40
2023-02-15T22:18:33.402Z,34.00
2023-02-15T22:21:00.854Z,35.60
2023-02-15T22:23:27.594Z,35.88
2023-02-15T22:25:56.061Z,35.15
2023-02-15T22:28:33.604Z,34.35
2023-02-15T22:31:00.573Z,34.85
2023-02-15T22:33:28.916Z,34.03
2023-02-15T22:35:55.893Z,34.97
2023-02-15T22:38:22.863Z,34.95
2023-02-15T22:40:50.710Z,35.42
2023-02-15T22:43:24.069Z,34.47
2023-02-15T22:45:50.895Z,34.90
2023-02-15T22:48:21.269Z,34.05
2023-02-15T22:50:48.616Z,34.50
2023-02-15T22:53:15.257Z,35.08
2023-02-15T22:55:42.000Z,34.88
2023-02-15T22:58:13.021Z,34.38
2023-02-15T23:00:40.339Z,34.60
2023-02-15T23:03:25.892Z,36.47
2023-02-15T23:05:52.830Z,33.38
2023-02-15T23:08:19.581Z,34.58
2023-02-15T23:10:49.287Z,32.72
2023-02-15T23:13:25.782Z,33.63
2023-02-15T23:16:00.195Z,35.28
2023-02-15T23:18:37.354Z,34.55
2023-02-15T23:21:04.448Z,32.90
2023-02-15T23:23:32.927Z,32.30
2023-02-15T23:26:01.126Z,33.13
2023-02-15T23:28:30.389Z,33.10
2023-02-15T23:30:58.707Z,31.73
2023-02-15T23:33:27.184Z,33.28
2023-02-15T23:35:53.904Z,32.30
2023-02-15T23:38:21.665Z,32.38
2023-02-15T23:41:08.908Z,32.50
2023-02-15T23:43:35.750Z,30.08
2023-02-15T23:46:05.001Z,33.40
2023-02-15T23:48:35.943Z,33.53
2023-02-15T23:51:03.735Z,33.22
2023-02-15T23:53:30.467Z,31.48
2023-02-15T23:55:57.856Z,33.22
2023-02-15T23:58:27.570Z,32.22
